Time;durP1;ratioP1;P1;durP2;ratioP2;P2;SDS_P1;SDS_P2;PMS_P1;PMS_P2;Temp;Humidity;BMP_temperature;BMP_pressure;BME280_temperature;BME280_humidity;BME280_pressure;Samples;Min_cycle;Max_cycle;Signal;HPM_P1;HPM_P2
2022/02/02 00:08:01;;;;;;;44.65;5.30;;;;;;;;;;6274837;22;20007;-92
2022/02/02 00:20:26;;;;;;;20.70;3.60;;;;;;;;;;6273411;22;20012;-94
2022/02/02 00:23:15;;;;;;;24.08;3.10;;;;;;;;;;6249844;22;20043;-93
2022/02/02 00:26:05;;;;;;;30.83;3.33;;;;;;;;;;6250236;22;20007;-93
2022/02/02 00:28:50;;;;;;;24.80;3.03;;;;;;;;;;6250077;22;20047;-93
2022/02/02 00:31:38;;;;;;;15.23;2.78;;;;;;;;;;6250036;22;20011;-94
2022/02/02 00:34:23;;;;;;;12.38;2.30;;;;;;;;;;6250301;22;20008;-94
2022/02/02 00:37:06;;;;;;;25.60;3.88;;;;;;;;;;6251008;22;20004;-93
2022/02/02 00:39:47;;;;;;;26.73;3.40;;;;;;;;;;6250843;22;20007;-94
2022/02/02 00:42:29;;;;;;;34.63;5.07;;;;;;;;;;6266130;22;20011;-94
2022/02/02 00:45:10;;;;;;;25.98;4.40;;;;;;;;;;6272454;22;20012;-94
2022/02/02 00:47:51;;;;;;;26.55;4.28;;;;;;;;;;6271605;22;20012;-94
2022/02/02 00:50:35;;;;;;;26.05;3.85;;;;;;;;;;6272047;22;20007;-94
2022/02/02 00:53:17;;;;;;;28.13;3.83;;;;;;;;;;6271179;22;20032;-93
2022/02/02 00:59:38;;;;;;;25.08;3.13;;;;;;;;;;6273991;22;20047;-94
2022/02/02 01:02:07;;;;;;;27.88;5.20;;;;;;;;;;6273392;22;20027;-93
2022/02/02 01:04:48;;;;;;;21.58;3.55;;;;;;;;;;6271798;22;20087;-94
2022/02/02 01:10:41;;;;;;;29.55;4.85;;;;;;;;;;6271978;22;20043;-94
2022/02/02 01:14:24;;;;;;;29.85;4.45;;;;;;;;;;6272228;22;20032;-93
2022/02/02 01:19:45;;;;;;;43.00;4.60;;;;;;;;;;6273694;22;20104;-93
2022/02/02 01:28:25;;;;;;;39.85;4.50;;;;;;;;;;6270782;22;20008;-94
2022/02/02 01:31:02;;;;;;;31.13;4.78;;;;;;;;;;6272466;22;20035;-95
2022/02/02 01:33:42;;;;;;;46.80;6.38;;;;;;;;;;6271020;22;20012;-94
2022/02/02 01:36:45;;;;;;;35.50;4.88;;;;;;;;;;6266835;22;20039;-94
2022/02/02 01:39:28;;;;;;;36.33;5.15;;;;;;;;;;6271662;22;20032;-94
2022/02/02 01:46:09;;;;;;;45.28;6.55;;;;;;;;;;6275496;22;20002;-93
2022/02/02 01:49:17;;;;;;;41.63;6.65;;;;;;;;;;6271402;22;20031;-93
2022/02/02 01:54:59;;;;;;;30.67;5.13;;;;;;;;;;6278415;22;20008;-93
2022/02/02 01:58:08;;;;;;;40.55;5.45;;;;;;;;;;6307482;22;20051;-92
2022/02/02 02:00:48;;;;;;;41.80;5.15;;;;;;;;;;6283274;22;20023;-93
2022/02/02 02:04:04;;;;;;;33.97;4.60;;;;;;;;;;6305355;22;20011;-92
2022/02/02 02:06:46;;;;;;;27.02;4.53;;;;;;;;;;6281629;22;20059;-94
2022/02/02 02:09:29;;;;;;;32.90;4.30;;;;;;;;;;6304561;22;20008;-94
2022/02/02 02:15:31;;;;;;;25.38;3.13;;;;;;;;;;6304502;22;20060;-93
2022/02/02 02:18:37;;;;;;;30.15;4.97;;;;;;;;;;6281823;22;20059;-92
2022/02/02 02:21:18;;;;;;;35.60;4.15;;;;;;;;;;6281271;22;20030;-93
2022/02/02 02:24:00;;;;;;;32.78;4.25;;;;;;;;;;6281317;22;20027;-92
2022/02/02 02:26:42;;;;;;;25.95;4.07;;;;;;;;;;6281887;22;20028;-93
2022/02/02 02:32:45;;;;;;;26.13;4.03;;;;;;;;;;6304422;22;20031;-93
2022/02/02 02:57:17;;;;;;;40.47;4.72;;;;;;;;;;6301207;22;20042;-94
2022/02/02 03:31:34;;;;;;;43.78;5.80;;;;;;;;;;6304062;22;20918;-94
2022/02/02 03:58:27;;;;;;;50.88;7.05;;;;;;;;;;6304767;22;20031;-93
2022/02/02 04:09:33;;;;;;;54.78;7.03;;;;;;;;;;6304830;22;20037;-94
2022/02/02 04:38:11;;;;;;;42.97;5.75;;;;;;;;;;6303163;22;20008;-93
2022/02/02 04:58:36;;;;;;;47.58;6.15;;;;;;;;;;6302036;22;20032;-91
2022/02/02 05:05:16;;;;;;;37.90;5.47;;;;;;;;;;6303014;22;20072;-92
2022/02/02 05:07:29;;;;;;;28.95;4.82;;;;;;;;;;6297238;22;20026;-93
2022/02/02 05:50:36;;;;;;;33.22;5.03;;;;;;;;;;6301602;22;20070;-93
2022/02/02 05:53:24;;;;;;;48.38;5.68;;;;;;;;;;6302900;22;20011;-94
2022/02/02 05:55:51;;;;;;;58.03;7.15;;;;;;;;;;6276189;22;20063;-93
2022/02/02 05:58:27;;;;;;;33.63;5.50;;;;;;;;;;6263895;22;20044;-93
2022/02/02 06:00:55;;;;;;;38.67;6.03;;;;;;;;;;6268424;22;20028;-94
2022/02/02 06:03:48;;;;;;;30.08;4.22;;;;;;;;;;6266419;22;20046;-94
2022/02/02 06:06:18;;;;;;;31.90;6.00;;;;;;;;;;6266223;23;20020;-93
2022/02/02 06:08:46;;;;;;;26.77;4.15;;;;;;;;;;6267470;22;20026;-94
2022/02/02 06:11:29;;;;;;;25.50;4.78;;;;;;;;;;6267460;22;20044;-95
2022/02/02 06:13:59;;;;;;;30.15;4.03;;;;;;;;;;6270720;22;20031;-94
2022/02/02 06:16:35;;;;;;;;;;;;;;;;;;6271129;22;20082;-93
2022/02/02 06:19:40;;;;;;;18.75;3.70;;;;;;;;;;6271661;22;19930;-93
2022/02/02 06:22:19;;;;;;;35.75;3.58;;;;;;;;;;6270890;22;20019;-94
2022/02/02 06:24:48;;;;;;;35.47;4.80;;;;;;;;;;6270021;22;20083;-94
2022/02/02 06:27:19;;;;;;;20.02;3.17;;;;;;;;;;6270358;22;20012;-94
2022/02/02 06:29:49;;;;;;;23.33;2.72;;;;;;;;;;6271695;22;20048;-94
2022/02/02 06:32:17;;;;;;;27.83;3.40;;;;;;;;;;6271450;22;20103;-93
2022/02/02 06:34:45;;;;;;;25.30;3.78;;;;;;;;;;6273907;22;20012;-93
2022/02/02 06:37:12;;;;;;;27.70;3.67;;;;;;;;;;6274122;22;20027;-94
2022/02/02 06:39:40;;;;;;;30.40;3.60;;;;;;;;;;6271170;22;20080;-94
2022/02/02 06:42:10;;;;;;;20.70;4.00;;;;;;;;;;6271056;22;20141;-93
2022/02/02 06:44:41;;;;;;;32.08;3.70;;;;;;;;;;6272652;22;20063;-94
2022/02/02 06:47:10;;;;;;;31.08;3.35;;;;;;;;;;6272381;22;20011;-94
2022/02/02 06:50:25;;;;;;;33.05;4.18;;;;;;;;;;6273339;22;20023;-94
2022/02/02 06:53:12;;;;;;;25.75;3.60;;;;;;;;;;6273433;22;20036;-93
2022/02/02 06:55:48;;;;;;;26.98;3.60;;;;;;;;;;6274528;22;20042;-94
2022/02/02 06:58:32;;;;;;;16.00;2.78;;;;;;;;;;6274052;22;20046;-94
2022/02/02 07:01:28;;;;;;;29.38;4.22;;;;;;;;;;6271214;22;20016;-94
2022/02/02 07:04:26;;;;;;;27.25;3.45;;;;;;;;;;6271557;22;20012;-93
2022/02/02 07:10:42;;;;;;;29.63;3.97;;;;;;;;;;6273502;22;20027;-94
2022/02/02 07:13:25;;;;;;;35.47;4.15;;;;;;;;;;6271490;22;20018;-94
2022/02/02 07:16:36;;;;;;;33.20;4.15;;;;;;;;;;6273478;22;20015;-94
2022/02/02 07:25:42;;;;;;;31.75;4.07;;;;;;;;;;6273517;22;20027;-93
2022/02/02 07:31:39;;;;;;;52.45;5.10;;;;;;;;;;6273770;22;20261;-94
2022/02/02 07:34:30;;;;;;;27.85;3.72;;;;;;;;;;6272083;22;20031;-94
2022/02/02 07:41:09;;;;;;;26.35;3.88;;;;;;;;;;6273803;22;20015;-94
2022/02/02 07:43:53;;;;;;;28.67;4.15;;;;;;;;;;6271267;22;20035;-94
2022/02/02 07:46:36;;;;;;;25.10;3.58;;;;;;;;;;6271301;22;20020;-93
2022/02/02 07:49:17;;;;;;;23.30;3.33;;;;;;;;;;6270588;22;20069;-93
2022/02/02 07:51:58;;;;;;;25.27;3.30;;;;;;;;;;6271834;22;20035;-93
2022/02/02 07:54:43;;;;;;;22.67;3.40;;;;;;;;;;6270865;22;20012;-92
2022/02/02 07:57:27;;;;;;;15.38;2.22;;;;;;;;;;6277919;22;20064;-95
2022/02/02 08:00:16;;;;;;;17.13;2.83;;;;;;;;;;6278379;22;20011;-93
2022/02/02 08:03:11;;;;;;;18.30;2.05;;;;;;;;;;6278610;22;20038;-93
2022/02/02 08:05:53;;;;;;;13.30;2.65;;;;;;;;;;6279771;22;20028;-93
2022/02/02 08:08:35;;;;;;;12.07;2.58;;;;;;;;;;6267150;22;20030;-92
2022/02/02 08:11:10;;;;;;;17.90;2.67;;;;;;;;;;6275421;22;20012;-94
2022/02/02 08:13:54;;;;;;;17.73;2.72;;;;;;;;;;6277106;22;20022;-93
2022/02/02 08:16:54;;;;;;;14.18;2.42;;;;;;;;;;6279219;22;20007;-93
2022/02/02 08:20:01;;;;;;;17.77;2.15;;;;;;;;;;6278846;22;20035;-93
2022/02/02 08:22:44;;;;;;;18.15;2.85;;;;;;;;;;6279189;22;20186;-94
2022/02/02 08:25:29;;;;;;;21.50;2.95;;;;;;;;;;6279515;22;20015;-94
2022/02/02 08:41:41;;;;;;;21.05;4.10;;;;;;;;;;6305847;22;20071;-94
2022/02/02 08:44:25;;;;;;;31.30;3.08;;;;;;;;;;6303751;22;20008;-95
2022/02/02 08:47:08;;;;;;;23.73;4.40;;;;;;;;;;6280266;22;20020;-94
2022/02/02 08:49:55;;;;;;;18.23;3.00;;;;;;;;;;6280643;22;20023;-95
2022/02/02 08:52:48;;;;;;;26.00;3.83;;;;;;;;;;6278552;22;20365;-92
2022/02/02 08:56:10;;;;;;;25.08;3.67;;;;;;;;;;6281637;22;20046;-94
2022/02/02 09:01:08;;;;;;;26.52;3.38;;;;;;;;;;6302031;22;20075;-93
2022/02/02 09:06:35;;;;;;;23.77;2.78;;;;;;;;;;6303307;22;20023;-93
2022/02/02 09:25:27;;;;;;;20.65;3.28;;;;;;;;;;6303322;22;20023;-94
2022/02/02 09:34:02;;;;;;;26.75;3.70;;;;;;;;;;6300923;22;20012;-94
2022/02/02 09:36:44;;;;;;;24.90;3.65;;;;;;;;;;6277635;22;20023;-94
2022/02/02 09:39:30;;;;;;;18.88;3.22;;;;;;;;;;6272511;22;20102;-94
2022/02/02 09:42:16;;;;;;;17.60;2.80;;;;;;;;;;6277845;22;20027;-95
2022/02/02 09:44:44;;;;;;;14.88;2.72;;;;;;;;;;6275905;22;20016;-94
2022/02/02 09:47:26;;;;;;;19.55;2.75;;;;;;;;;;6274736;22;20079;-94
2022/02/02 09:52:24;;;;;;;12.95;2.15;;;;;;;;;;6299753;22;20028;-93
2022/02/02 10:00:42;;;;;;;16.00;2.55;;;;;;;;;;6298692;22;20028;-94
2022/02/02 10:06:28;;;;;;;15.35;2.55;;;;;;;;;;6305655;22;20031;-93
2022/02/02 10:09:28;;;;;;;14.18;2.50;;;;;;;;;;6278170;22;20063;-94
2022/02/02 10:12:20;;;;;;;16.45;2.95;;;;;;;;;;6275189;22;20035;-95
2022/02/02 10:14:54;;;;;;;17.58;2.38;;;;;;;;;;6275537;22;20034;-94
2022/02/02 10:19:56;;;;;;;13.38;2.50;;;;;;;;;;6283451;22;20018;-94
2022/02/02 10:22:27;;;;;;;18.58;2.97;;;;;;;;;;6274575;22;20111;-93
2022/02/02 10:25:23;;;;;;;17.90;3.35;;;;;;;;;;6276069;22;20534;-94
2022/02/02 10:27:51;;;;;;;19.15;3.35;;;;;;;;;;6273200;22;20028;-93
2022/02/02 10:30:22;;;;;;;18.30;2.80;;;;;;;;;;6247300;22;20039;-94
2022/02/02 10:32:54;;;;;;;16.65;2.95;;;;;;;;;;6272578;22;20050;-94
2022/02/02 10:35:32;;;;;;;17.63;2.40;;;;;;;;;;6300651;22;20024;-93
2022/02/02 10:38:50;;;;;;;18.15;2.28;;;;;;;;;;6279184;22;20043;-93
2022/02/02 10:41:50;;;;;;;11.65;2.70;;;;;;;;;;6298287;22;20027;-93
2022/02/02 10:44:32;;;;;;;13.90;2.90;;;;;;;;;;6272327;22;20046;-93
2022/02/02 10:50:50;;;;;;;13.35;2.92;;;;;;;;;;6297160;22;20116;-95
2022/02/02 11:06:39;;;;;;;16.48;2.97;;;;;;;;;;6301871;22;20026;-93
2022/02/02 11:09:10;;;;;;;24.67;3.15;;;;;;;;;;6277403;22;20046;-93
2022/02/02 11:15:25;;;;;;;12.75;2.70;;;;;;;;;;6303766;22;20059;-92
2022/02/02 11:17:57;;;;;;;17.63;3.20;;;;;;;;;;6269163;22;20027;-93
2022/02/02 11:20:24;;;;;;;16.25;2.90;;;;;;;;;;6236906;23;20543;-93
2022/02/02 11:23:15;;;;;;;18.80;2.88;;;;;;;;;;6235310;23;20031;-94
2022/02/02 11:25:48;;;;;;;16.33;2.97;;;;;;;;;;6232551;23;20013;-94
2022/02/02 11:28:25;;;;;;;16.15;2.67;;;;;;;;;;6233031;23;20047;-95
2022/02/02 11:31:04;;;;;;;16.20;2.80;;;;;;;;;;6233005;23;20558;-94
2022/02/02 11:33:41;;;;;;;20.52;2.83;;;;;;;;;;6233928;23;20043;-93
2022/02/02 11:36:20;;;;;;;16.83;2.65;;;;;;;;;;6232905;23;20067;-93
2022/02/02 11:38:50;;;;;;;13.27;1.88;;;;;;;;;;6237874;23;20020;-93
2022/02/02 11:44:12;;;;;;;18.13;2.22;;;;;;;;;;6240265;23;20020;-94
2022/02/02 11:47:19;;;;;;;13.13;3.03;;;;;;;;;;6239303;23;20019;-93
2022/02/02 11:50:03;;;;;;;12.15;2.10;;;;;;;;;;6240875;23;20020;-94
2022/02/02 11:52:44;;;;;;;18.92;2.28;;;;;;;;;;6239616;23;20017;-94
2022/02/02 11:55:11;;;;;;;17.85;2.30;;;;;;;;;;6238411;23;20013;-93
2022/02/02 11:58:20;;;;;;;16.95;2.25;;;;;;;;;;6238566;23;20148;-93
2022/02/02 12:00:58;;;;;;;11.90;1.90;;;;;;;;;;6238065;23;20022;-94
2022/02/02 12:03:38;;;;;;;15.13;1.85;;;;;;;;;;6239660;23;20146;-93
2022/02/02 12:45:23;;;;;;;11.45;2.33;;;;;;;;;;6302240;22;20011;-94
2022/02/02 12:47:59;;;;;;;11.63;2.55;;;;;;;;;;6303473;22;20016;-93
2022/02/02 12:53:58;;;;;;;13.07;2.45;;;;;;;;;;6303783;22;20012;-93
2022/02/02 12:56:37;;;;;;;20.58;3.67;;;;;;;;;;6303832;22;20023;-93
2022/02/02 12:59:32;;;;;;;12.75;3.38;;;;;;;;;;6277609;22;20015;-93
2022/02/02 13:05:34;;;;;;;10.50;2.00;;;;;;;;;;6303638;22;20019;-94
2022/02/02 13:08:03;;;;;;;15.73;2.97;;;;;;;;;;6277405;22;20023;-94
2022/02/02 13:10:34;;;;;;;10.90;2.85;;;;;;;;;;6278725;22;20070;-94
2022/02/02 13:53:49;;;;;;;12.55;2.60;;;;;;;;;;6304467;22;20012;-95
2022/02/02 14:01:46;;;;;;;19.77;3.28;;;;;;;;;;6289278;22;20028;-93
2022/02/02 14:05:05;;;;;;;16.65;2.78;;;;;;;;;;6277139;22;20063;-93
2022/02/02 14:07:55;;;;;;;31.30;3.22;;;;;;;;;;6275777;22;20027;-93
2022/02/02 14:11:50;;;;;;;24.73;3.38;;;;;;;;;;6279275;22;20012;-94
2022/02/02 14:31:11;;;;;;;25.55;2.90;;;;;;;;;;6303020;22;20085;-94
2022/02/02 14:33:49;;;;;;;22.58;2.72;;;;;;;;;;6278352;22;20026;-95
2022/02/02 14:36:20;;;;;;;17.48;3.53;;;;;;;;;;6276307;22;20035;-94
2022/02/02 14:39:11;;;;;;;12.90;3.05;;;;;;;;;;6277119;22;20219;-94
2022/02/02 14:41:48;;;;;;;19.42;3.33;;;;;;;;;;6276310;22;20027;-95
2022/02/02 14:44:35;;;;;;;20.35;2.55;;;;;;;;;;6273863;22;20228;-93
2022/02/02 14:47:36;;;;;;;19.27;2.67;;;;;;;;;;6293034;22;20016;-95
2022/02/02 14:50:18;;;;;;;16.85;3.05;;;;;;;;;;6265390;22;20102;-94
2022/02/02 14:52:55;;;;;;;25.05;3.42;;;;;;;;;;6264442;22;20035;-93
2022/02/02 14:56:11;;;;;;;14.88;2.30;;;;;;;;;;6271571;22;20018;-94
2022/02/02 15:16:44;;;;;;;23.75;3.13;;;;;;;;;;6294040;22;20368;-93
2022/02/02 15:32:48;;;;;;;21.75;3.28;;;;;;;;;;6299324;22;20030;-94
2022/02/02 15:35:15;;;;;;;26.15;3.50;;;;;;;;;;6271799;22;20011;-93
2022/02/02 15:38:16;;;;;;;18.38;2.85;;;;;;;;;;6299369;22;20011;-93
2022/02/02 15:40:51;;;;;;;29.42;5.05;;;;;;;;;;6273437;22;20206;-94
2022/02/02 16:05:16;;;;;;;24.27;3.03;;;;;;;;;;6294317;22;20035;-94
2022/02/02 16:07:43;;;;;;;27.83;3.67;;;;;;;;;;6272099;22;20024;-95
2022/02/02 16:10:19;;;;;;;25.23;3.58;;;;;;;;;;6274676;22;20051;-94
2022/02/02 16:12:57;;;;;;;26.73;3.45;;;;;;;;;;6278090;22;20024;-94
2022/02/02 16:15:30;;;;;;;21.27;3.22;;;;;;;;;;6275142;22;20016;-93
2022/02/02 16:32:11;;;;;;;18.90;3.78;;;;;;;;;;6297871;22;20019;-94
2022/02/02 16:37:30;;;;;;;24.90;4.03;;;;;;;;;;6301777;22;20019;-94
2022/02/02 16:40:03;;;;;;;30.20;3.97;;;;;;;;;;6278470;22;20016;-95
2022/02/02 16:43:07;;;;;;;24.92;3.50;;;;;;;;;;6302714;22;20016;-95
2022/02/02 16:45:56;;;;;;;24.38;3.22;;;;;;;;;;6276025;22;20087;-94
2022/02/02 16:48:59;;;;;;;34.75;3.33;;;;;;;;;;6281072;22;20038;-94
2022/02/02 16:51:29;;;;;;;31.20;3.70;;;;;;;;;;6279309;22;20023;-94
2022/02/02 16:54:17;;;;;;;26.13;3.75;;;;;;;;;;6273932;22;20019;-94
2022/02/02 17:31:59;;;;;;;21.08;3.95;;;;;;;;;;6300363;22;19907;-95
2022/02/02 17:34:36;;;;;;;27.77;3.67;;;;;;;;;;6274994;22;20095;-94
2022/02/02 17:40:08;;;;;;;27.77;3.38;;;;;;;;;;6299073;22;20034;-94
2022/02/02 18:17:49;;;;;;;24.75;2.83;;;;;;;;;;6273214;22;20012;-95
2022/02/02 18:19:51;;;;;;;22.88;4.15;;;;;;;;;;6272181;22;20039;-95
2022/02/02 18:22:23;;;;;;;24.75;3.20;;;;;;;;;;6247216;22;20012;-95
2022/02/02 18:49:47;;;;;;;39.10;5.32;;;;;;;;;;6274367;22;20038;-94
2022/02/02 19:31:05;;;;;;;48.30;7.05;;;;;;;;;;6305492;22;20030;-94
2022/02/02 20:03:58;;;;;;;27.83;6.20;;;;;;;;;;6306021;22;20215;-95
2022/02/02 20:06:45;;;;;;;42.58;6.97;;;;;;;;;;6278883;22;20061;-95
2022/02/02 20:36:24;;;;;;;28.70;5.72;;;;;;;;;;6304667;22;20014;-94
2022/02/02 20:38:52;;;;;;;35.28;4.88;;;;;;;;;;6279052;22;20008;-95
2022/02/02 20:41:43;;;;;;;28.77;3.70;;;;;;;;;;6281199;22;20007;-95
2022/02/02 20:44:41;;;;;;;27.13;4.68;;;;;;;;;;6280206;22;20007;-95
2022/02/02 21:10:53;;;;;;;24.25;3.78;;;;;;;;;;6298302;22;20061;-94
2022/02/02 21:13:51;;;;;;;24.38;5.13;;;;;;;;;;6279770;22;20026;-94
2022/02/02 21:26:48;;;;;;;22.10;4.53;;;;;;;;;;6304747;22;20038;-95
2022/02/02 21:29:16;;;;;;;26.10;4.47;;;;;;;;;;6279346;22;20054;-94
2022/02/02 21:31:52;;;;;;;30.83;4.72;;;;;;;;;;6281179;22;20018;-94
2022/02/02 21:34:43;;;;;;;34.53;4.38;;;;;;;;;;6280562;22;20035;-94
2022/02/02 21:37:23;;;;;;;28.15;4.75;;;;;;;;;;6279154;22;20071;-94
2022/02/02 21:40:04;;;;;;;30.05;4.43;;;;;;;;;;6278554;22;20037;-93
2022/02/02 21:42:59;;;;;;;24.67;4.05;;;;;;;;;;6300596;22;20058;-94
2022/02/02 21:45:30;;;;;;;24.23;5.10;;;;;;;;;;6278428;22;20011;-94
2022/02/02 21:48:00;;;;;;;23.20;4.10;;;;;;;;;;6278829;22;20030;-95
2022/02/02 21:53:55;;;;;;;27.50;4.20;;;;;;;;;;6304689;22;19999;-93
2022/02/02 21:56:23;;;;;;;24.33;4.07;;;;;;;;;;6278256;22;20015;-94
2022/02/02 21:58:51;;;;;;;24.80;4.50;;;;;;;;;;6278569;22;20059;-94
2022/02/02 22:01:41;;;;;;;22.92;4.15;;;;;;;;;;6281602;22;20079;-95
2022/02/02 22:04:11;;;;;;;23.63;4.32;;;;;;;;;;6274688;22;20064;-95
2022/02/02 22:06:40;;;;;;;31.23;4.78;;;;;;;;;;6274713;22;20012;-95
2022/02/02 22:09:09;;;;;;;21.92;4.70;;;;;;;;;;6274798;22;20054;-95
2022/02/02 22:11:37;;;;;;;25.63;4.35;;;;;;;;;;6274689;22;20406;-96
2022/02/02 22:14:13;;;;;;;22.83;4.63;;;;;;;;;;6274214;22;20024;-95
2022/02/02 22:17:06;;;;;;;23.08;3.78;;;;;;;;;;6274185;22;20054;-95
2022/02/02 22:19:42;;;;;;;31.38;4.32;;;;;;;;;;6274178;22;20023;-95
2022/02/02 22:22:10;;;;;;;32.97;5.97;;;;;;;;;;6274019;22;20008;-95
2022/02/02 22:24:38;;;;;;;26.08;4.35;;;;;;;;;;6274379;22;20016;-95
2022/02/02 22:27:10;;;;;;;25.20;3.50;;;;;;;;;;6273944;22;20031;-94
2022/02/02 22:29:37;;;;;;;19.85;3.92;;;;;;;;;;6273457;22;20016;-94
2022/02/02 22:32:05;;;;;;;32.33;5.10;;;;;;;;;;6273850;22;20064;-95
2022/02/02 22:55:15;;;;;;;27.50;3.88;;;;;;;;;;6281728;22;20078;-96
2022/02/02 22:57:49;;;;;;;21.15;3.92;;;;;;;;;;6281106;22;20012;-95
2022/02/02 23:03:42;;;;;;;19.05;3.95;;;;;;;;;;6306005;22;20023;-96
2022/02/02 23:06:10;;;;;;;30.65;4.25;;;;;;;;;;6280180;22;20023;-95
2022/02/02 23:08:38;;;;;;;20.90;4.95;;;;;;;;;;6279842;22;20067;-95
2022/02/02 23:11:08;;;;;;;19.98;4.47;;;;;;;;;;6279854;22;20015;-95
2022/02/02 23:14:01;;;;;;;20.67;4.22;;;;;;;;;;6280171;22;20063;-96
2022/02/02 23:16:35;;;;;;;24.40;4.80;;;;;;;;;;6279770;22;20027;-95
2022/02/02 23:19:02;;;;;;;29.58;5.00;;;;;;;;;;6279979;22;20012;-95
2022/02/02 23:25:18;;;;;;;24.23;5.15;;;;;;;;;;6305984;22;20027;-95
2022/02/02 23:27:46;;;;;;;27.60;5.03;;;;;;;;;;6279600;22;20042;-94
2022/02/02 23:30:33;;;;;;;28.88;5.60;;;;;;;;;;6301165;22;20018;-95
2022/02/02 23:33:13;;;;;;;33.60;5.68;;;;;;;;;;6281789;22;20031;-95
2022/02/02 23:35:54;;;;;;;33.38;5.05;;;;;;;;;;6282234;22;20018;-95
2022/02/02 23:38:25;;;;;;;22.05;4.70;;;;;;;;;;6280728;22;20016;-95
2022/02/02 23:43:24;;;;;;;31.02;5.18;;;;;;;;;;6304908;22;20024;-95
2022/02/02 23:49:55;;;;;;;28.02;5.68;;;;;;;;;;6304511;22;20015;-94
2022/02/02 23:52:28;;;;;;;30.67;5.75;;;;;;;;;;6300250;22;20008;-94
2022/02/02 23:54:59;;;;;;;23.75;4.25;;;;;;;;;;6275794;22;20028;-94
